Sheridan, WY

10:10 PM MST on December 21, 2014 (GMT -0700)
North Airport Area | Change Station
CLOSE
Current Station
Personal Weather Station
Location: Sheridan, WY
Elevation: 3917 ft
Nearby Weather Stations
Active Advisory: Special Statement Active Notice: Public Information Statement

Elev 3917 ft 44.78 °N, 106.97 °W | Updated 10 minutes ago

Light Snow
Light Snow
36.5 °F
Feels Like 29 °F
N
9.9
Wind Variable Wind from NNW

Today
High -- | Low -- °F
--% Chance of Precip.
Yesterday
High -- | Low -- °F
Precip. -- in
7:42 AM 4:29 PM
New Moon, 0% visible
Pressure 29.67 in
Visibility 9.0 miles
Clouds Overcast 2800 ft
Windchill 29 °F
Dew Point 29 °F
Humidity 74%
Rainfall 0.00 in
Snow Depth Not available.
UV 0 out of 12
Pollen .10 out of 12
Air Quality Not available.
Flu Activity Not available.
SPECI KSHR 220503Z AUTO 32022G29KT 9SM -SN OVC028 02/M02 A2967 RMK AO2 PK WND 32029/0458 P0000 T00221022

More Conditions Fewer Conditions

Pressure 29.67 in
Visibility 9.0 miles
Clouds Overcast 2800 ft
Windchill 29 °F
Dew Point 29 °F
Humidity 74%
Rainfall 0.00 in
Snow Depth Not available.
UV 0 out of 12
Pollen .10 out of 12
Air Quality Not available.
Flu Activity Not available.
SPECI KSHR 220503Z AUTO 32022G29KT 9SM -SN OVC028 02/M02 A2967 RMK AO2 PK WND 32029/0458 P0000 T00221022

More Conditions Fewer Conditions

10-Day Weather Forecast

Almanac

Astronomy

Dec. 21, 2014 Rise Set
Actual Time
Civil Twilight
Nautical Twilight
Astronomical Twilight
Moon
Length of Visible Light
Length of Day
Tomorrow will be .
, % of the Moon is Illuminated

Today's Extremes

State Highs State Lows

Community

WunderPhotos

Upload Photos

1,779,547 photos uploaded!

WunderBlogs® & News

Nearby

Air Quality

  Air Quality AQ Index Pollutant
Not available.

Snow Depth

Station Depth Elevation

Earthquake Activity

City Distance Mag. Time & Date
Minimum magnitude displayed is 2.5.

Coastal Water Temperatures

Place Temperature

Nearby Weather Stations